Time;durP1;ratioP1;P1;durP2;ratioP2;P2;SDS_P1;SDS_P2;PMS_P1;PMS_P2;Temp;Humidity;BMP_temperature;BMP_pressure;BME280_temperature;BME280_humidity;BME280_pressure;Samples;Min_cycle;Max_cycle;Signal;HPM_P1;HPM_P2
2023/09/10 00:01:28;;;;;;;9.55;3.17;;;;;;;13.34;100.00;97856.19;5133563;27;20038;-72
2023/09/10 00:03:53;;;;;;;5.18;3.13;;;;;;;13.32;100.00;97850.03;5148227;27;20030;-72
2023/09/10 00:06:19;;;;;;;9.60;4.10;;;;;;;13.32;100.00;97849.22;5154329;27;20015;-73
2023/09/10 00:08:44;;;;;;;7.03;3.50;;;;;;;13.22;100.00;97848.97;5154351;27;20027;-72
2023/09/10 00:11:10;;;;;;;8.60;3.50;;;;;;;13.23;100.00;97847.13;5135460;27;20022;-72
2023/09/10 00:13:35;;;;;;;4.43;2.70;;;;;;;13.11;100.00;97843.44;5153008;27;20019;-72
2023/09/10 00:16:01;;;;;;;9.70;2.80;;;;;;;12.98;100.00;97846.06;5154055;27;20035;-73
2023/09/10 00:21:11;;;;;;;4.53;2.45;;;;;;;12.88;100.00;97841.41;5153298;27;20060;-73
2023/09/10 00:23:37;;;;;;;4.43;2.58;;;;;;;12.92;100.00;97845.63;5152713;27;20263;-72
2023/09/10 00:26:02;;;;;;;5.85;2.65;;;;;;;12.74;100.00;97839.63;5152823;27;20504;-72
2023/09/10 00:28:28;;;;;;;5.30;2.42;;;;;;;12.63;100.00;97834.13;5135260;27;20544;-72
2023/09/10 00:30:54;;;;;;;4.93;2.38;;;;;;;12.76;100.00;97832.34;5135194;27;20164;-72
2023/09/10 00:33:19;;;;;;;9.20;2.45;;;;;;;12.84;100.00;97839.88;5152654;27;20023;-71
2023/09/10 00:35:45;;;;;;;5.22;2.80;;;;;;;12.72;100.00;97836.19;5152658;27;20406;-72
2023/09/10 00:38:10;;;;;;;9.85;2.70;;;;;;;12.69;100.00;97838.22;5153517;27;20424;-73
2023/09/10 00:40:36;;;;;;;3.95;2.38;;;;;;;12.67;100.00;97838.34;5152576;27;20117;-73
2023/09/10 00:43:02;;;;;;;11.70;3.10;;;;;;;12.58;100.00;97838.91;5152497;27;20528;-72
2023/09/10 00:45:29;;;;;;;7.75;3.15;;;;;;;12.53;100.00;97833.00;5153528;27;20037;-72
2023/09/10 00:47:55;;;;;;;4.90;2.80;;;;;;;12.48;100.00;97832.44;5134824;27;20450;-72
2023/09/10 00:50:21;;;;;;;5.97;2.95;;;;;;;12.65;100.00;97844.75;5153555;27;20036;-72
2023/09/10 00:52:50;;;;;;;5.13;3.05;;;;;;;12.71;100.00;97839.84;5151943;27;20022;-72
2023/09/10 00:55:16;;;;;;;3.88;2.53;;;;;;;12.63;100.00;97834.13;5153546;27;20125;-73
2023/09/10 00:57:43;;;;;;;7.70;2.85;;;;;;;12.57;100.00;97842.56;5151972;27;20491;-72
2023/09/10 01:00:09;;;;;;;3.83;2.78;;;;;;;12.47;100.00;97836.94;5152276;27;20018;-73
2023/09/10 01:02:35;;;;;;;4.18;2.60;;;;;;;12.46;100.00;97843.25;5152054;27;20019;-73
2023/09/10 01:05:01;;;;;;;4.43;2.60;;;;;;;12.44;100.00;97842.50;5151777;27;20029;-73
2023/09/10 01:07:26;;;;;;;4.07;2.42;;;;;;;12.42;100.00;97840.88;5153018;27;20025;-73
2023/09/10 01:09:52;;;;;;;6.28;2.28;;;;;;;12.42;100.00;97838.22;5152020;27;20031;-76
2023/09/10 01:12:40;;;;;;;7.10;2.40;;;;;;;12.39;100.00;97839.28;5134610;27;20026;-72
2023/09/10 01:15:39;;;;;;;4.80;2.33;;;;;;;12.35;100.00;97848.47;5151668;27;20023;-72
2023/09/10 01:18:45;;;;;;;3.25;2.05;;;;;;;12.43;100.00;97846.13;5151448;27;20029;-73
2023/09/10 01:21:36;;;;;;;6.88;2.55;;;;;;;12.50;100.00;97851.97;5055609;28;20122;-72
2023/09/10 01:24:19;;;;;;;4.20;2.30;;;;;;;12.45;100.00;97849.59;5055351;28;20032;-72
2023/09/10 01:26:57;;;;;;;5.05;2.13;;;;;;;12.47;100.00;97842.31;5138230;27;20033;-72
2023/09/10 01:29:22;;;;;;;6.18;2.80;;;;;;;12.47;100.00;97841.44;5151640;27;20026;-72
2023/09/10 01:31:52;;;;;;;8.07;2.35;;;;;;;12.45;100.00;97849.59;5151305;27;20031;-72
2023/09/10 01:34:21;;;;;;;3.15;2.15;;;;;;;12.42;100.00;97841.75;5151545;27;20398;-72
2023/09/10 01:36:53;;;;;;;4.53;2.38;;;;;;;12.44;100.00;97847.00;5150869;27;20023;-73
2023/09/10 01:39:30;;;;;;;3.60;2.38;;;;;;;12.43;100.00;97848.81;5134040;27;20045;-72
2023/09/10 01:41:56;;;;;;;6.13;2.45;;;;;;;12.50;100.00;97849.28;5151183;27;20022;-72
2023/09/10 01:44:24;;;;;;;4.03;2.40;;;;;;;12.48;100.00;97843.16;5151323;27;20075;-72
2023/09/10 01:46:50;;;;;;;4.18;2.03;;;;;;;12.51;100.00;97845.66;5151051;27;20018;-73
2023/09/10 01:49:16;;;;;;;4.43;2.50;;;;;;;12.39;100.00;97846.44;5151101;27;20022;-73
2023/09/10 01:51:42;;;;;;;6.85;2.60;;;;;;;12.28;100.00;97849.81;5133754;27;20038;-73
2023/09/10 01:54:07;;;;;;;5.95;2.65;;;;;;;12.20;100.00;97852.13;5152474;27;20030;-73
2023/09/10 01:56:33;;;;;;;8.57;2.85;;;;;;;12.16;100.00;97849.72;5150943;27;20027;-73
2023/09/10 01:58:59;;;;;;;4.90;2.78;;;;;;;12.17;100.00;97851.47;5150736;27;20406;-73
2023/09/10 02:01:27;;;;;;;7.55;2.65;;;;;;;12.22;100.00;97852.00;5150660;27;20029;-73
2023/09/10 02:03:53;;;;;;;8.15;3.13;;;;;;;12.21;100.00;97855.69;5150112;27;20539;-73
2023/09/10 02:06:18;;;;;;;6.75;3.40;;;;;;;12.20;100.00;97849.44;5150750;27;20023;-73
2023/09/10 02:08:44;;;;;;;11.02;3.65;;;;;;;12.14;100.00;97849.84;5150585;27;20039;-72
2023/09/10 02:11:09;;;;;;;6.78;3.45;;;;;;;12.10;100.00;97848.28;5133285;27;20033;-72
2023/09/10 02:13:35;;;;;;;7.10;3.33;;;;;;;12.10;100.00;97850.97;5150236;27;20023;-72
2023/09/10 02:16:01;;;;;;;6.55;3.53;;;;;;;12.03;100.00;97846.13;5151648;27;20486;-72
2023/09/10 02:18:28;;;;;;;7.82;3.10;;;;;;;11.92;100.00;97861.06;5133129;27;20397;-72
2023/09/10 02:20:54;;;;;;;7.43;3.63;;;;;;;11.93;100.00;97852.03;5133313;27;20030;-72
2023/09/10 02:23:20;;;;;;;7.07;3.08;;;;;;;11.98;100.00;97850.88;5151733;27;20126;-72
2023/09/10 02:25:46;;;;;;;7.80;3.47;;;;;;;12.03;100.00;97864.88;5150698;27;20486;-72
2023/09/10 02:28:12;;;;;;;8.90;3.05;;;;;;;11.99;100.00;97863.34;5150335;27;20098;-72
2023/09/10 02:30:37;;;;;;;12.48;2.80;;;;;;;11.84;100.00;97873.22;5133302;27;20129;-73
2023/09/10 02:33:03;;;;;;;5.10;2.80;;;;;;;11.79;100.00;97865.44;5132764;27;20023;-73
2023/09/10 02:35:29;;;;;;;8.63;2.90;;;;;;;11.76;100.00;97864.75;5151727;27;20048;-73
2023/09/10 02:37:54;;;;;;;6.72;2.45;;;;;;;11.74;100.00;97862.19;5151524;27;20031;-73
2023/09/10 02:40:20;;;;;;;3.80;2.38;;;;;;;11.70;100.00;97859.78;5150487;27;20045;-73
2023/09/10 02:42:45;;;;;;;6.28;2.70;;;;;;;11.66;100.00;97858.22;5143073;27;20023;-73
2023/09/10 02:45:12;;;;;;;7.57;2.40;;;;;;;11.69;100.00;97856.19;5149261;27;20031;-73
2023/09/10 02:47:37;;;;;;;8.60;2.50;;;;;;;11.64;100.00;97862.81;5133032;27;20567;-73
2023/09/10 02:50:04;;;;;;;4.85;2.30;;;;;;;11.56;100.00;97865.09;5132880;27;20053;-73
2023/09/10 02:52:31;;;;;;;4.40;2.53;;;;;;;11.54;100.00;97858.94;5151517;27;20511;-73
2023/09/10 02:54:57;;;;;;;5.13;2.95;;;;;;;11.58;100.00;97853.31;5151319;27;20109;-72
2023/09/10 02:57:22;;;;;;;5.95;2.60;;;;;;;11.66;100.00;97858.22;5148952;27;20026;-71
2023/09/10 02:59:48;;;;;;;4.65;2.58;;;;;;;11.69;100.00;97855.34;5147092;27;20405;-72
2023/09/10 03:02:13;;;;;;;7.40;2.35;;;;;;;11.69;100.00;97858.03;5151479;27;20023;-73
2023/09/10 03:04:39;;;;;;;5.38;2.72;;;;;;;11.68;100.00;97861.66;5150141;27;20070;-72
2023/09/10 03:07:04;;;;;;;3.95;2.47;;;;;;;11.69;100.00;97874.13;5130698;27;20016;-72
2023/09/10 03:09:30;;;;;;;11.15;2.60;;;;;;;11.63;100.00;97863.78;5132170;27;20174;-72
2023/09/10 03:12:24;;;;;;;6.32;2.40;;;;;;;11.63;100.00;97874.50;5143707;27;20027;-80
2023/09/10 03:14:50;;;;;;;4.43;2.70;;;;;;;11.52;100.00;97871.59;5131658;27;20052;-78
2023/09/10 03:17:16;;;;;;;5.18;3.15;;;;;;;11.56;100.00;97874.00;5122188;27;20537;-77
2023/09/10 03:19:43;;;;;;;8.32;2.83;;;;;;;11.58;100.00;97879.25;5140851;27;20058;-78
2023/09/10 03:22:09;;;;;;;5.93;2.88;;;;;;;11.54;100.00;97886.59;5133577;27;20027;-77
2023/09/10 03:24:35;;;;;;;5.75;2.78;;;;;;;11.46;100.00;97877.31;5115009;27;20102;-78
2023/09/10 03:27:00;;;;;;;5.25;2.53;;;;;;;11.52;100.00;97880.50;5124181;27;20404;-78
2023/09/10 03:29:26;;;;;;;5.32;3.00;;;;;;;11.46;100.00;97880.00;5143853;27;20027;-78
2023/09/10 03:31:52;;;;;;;7.78;2.90;;;;;;;11.51;100.00;97885.91;5145262;27;20037;-78
2023/09/10 03:34:18;;;;;;;5.50;2.42;;;;;;;11.52;100.00;97877.81;5121060;27;20027;-78
2023/09/10 03:36:44;;;;;;;8.52;3.03;;;;;;;11.43;100.00;97881.91;5127936;27;20026;-78
2023/09/10 03:39:09;;;;;;;12.63;2.67;;;;;;;11.44;100.00;97891.66;5126450;27;20086;-78
2023/09/10 03:41:35;;;;;;;4.18;2.80;;;;;;;11.36;100.00;97885.03;5127592;27;20459;-78
2023/09/10 03:44:00;;;;;;;5.75;2.78;;;;;;;11.34;100.00;97878.91;5127884;27;20038;-78
2023/09/10 03:46:26;;;;;;;13.73;2.80;;;;;;;11.37;100.00;97890.31;5125188;27;20019;-78
2023/09/10 03:48:52;;;;;;;6.72;2.83;;;;;;;11.26;100.00;97881.16;5140131;27;20023;-78
2023/09/10 03:51:17;;;;;;;9.70;2.85;;;;;;;11.22;100.00;97885.00;5143421;27;20022;-78
2023/09/10 03:53:43;;;;;;;10.00;2.97;;;;;;;11.25;100.00;97891.03;5144582;27;20026;-78
2023/09/10 03:56:08;;;;;;;8.75;3.00;;;;;;;11.28;100.00;97898.91;5143759;27;20030;-77
2023/09/10 03:58:34;;;;;;;7.18;2.85;;;;;;;11.23;100.00;97910.81;5129591;27;20530;-77
2023/09/10 04:00:59;;;;;;;18.08;3.53;;;;;;;11.23;100.00;97916.16;5143789;27;20370;-77
2023/09/10 04:03:26;;;;;;;25.77;3.55;;;;;;;11.17;100.00;97904.00;5130981;27;20078;-78
2023/09/10 04:05:54;;;;;;;8.07;3.38;;;;;;;11.17;100.00;97906.69;5148925;27;20022;-78
2023/09/10 04:08:20;;;;;;;10.70;3.47;;;;;;;11.23;100.00;97916.16;5125642;27;20474;-78
2023/09/10 04:10:45;;;;;;;7.88;3.25;;;;;;;11.21;100.00;97921.63;5144436;27;20030;-78
2023/09/10 04:13:11;;;;;;;6.20;3.25;;;;;;;11.18;100.00;97919.13;5125662;27;20035;-78
2023/09/10 04:15:37;;;;;;;11.10;3.10;;;;;;;11.33;100.00;97925.38;5142828;27;20064;-77
2023/09/10 04:18:05;;;;;;;12.40;3.53;;;;;;;11.33;100.00;97918.22;5124078;27;20027;-78
2023/09/10 04:20:31;;;;;;;5.03;2.88;;;;;;;11.40;100.00;97918.72;5142728;27;20405;-77
2023/09/10 04:22:57;;;;;;;10.45;3.90;;;;;;;11.40;100.00;97918.72;5140515;27;20447;-77
2023/09/10 04:25:22;;;;;;;9.20;3.50;;;;;;;11.43;100.00;97922.09;5126352;27;20022;-77
2023/09/10 04:27:48;;;;;;;6.78;2.97;;;;;;;11.53;100.00;97916.19;5134841;27;20034;-77
2023/09/10 04:30:14;;;;;;;11.02;3.17;;;;;;;11.57;100.00;97923.94;5123696;27;20027;-78
2023/09/10 04:32:39;;;;;;;3.88;2.53;;;;;;;11.62;100.00;97921.84;5125377;27;20062;-78
2023/09/10 04:35:05;;;;;;;8.63;3.08;;;;;;;11.78;100.00;97924.50;5126897;27;20124;-78
2023/09/10 04:37:32;;;;;;;8.35;3.13;;;;;;;11.79;100.00;97927.06;5124786;27;20046;-78
2023/09/10 04:39:57;;;;;;;7.22;3.25;;;;;;;11.84;100.00;97924.97;5143945;27;20029;-78
2023/09/10 04:42:23;;;;;;;15.68;4.05;;;;;;;11.96;100.00;97936.78;5119936;27;20027;-77
2023/09/10 04:44:49;;;;;;;20.63;5.90;;;;;;;12.08;100.00;97936.03;5128570;27;20063;-78
2023/09/10 04:47:15;;;;;;;22.63;6.47;;;;;;;12.10;100.00;97923.38;5147194;27;20470;-77
2023/09/10 04:49:41;;;;;;;17.08;6.00;;;;;;;12.17;100.00;97930.09;5119198;27;20030;-77
2023/09/10 04:52:06;;;;;;;20.45;5.15;;;;;;;12.16;100.00;97930.19;5141053;27;20023;-79
2023/09/10 04:54:32;;;;;;;10.43;4.30;;;;;;;12.06;100.00;97937.91;5124471;27;20031;-77
2023/09/10 04:56:57;;;;;;;8.75;3.45;;;;;;;12.25;100.00;97927.78;5120426;27;20088;-79
2023/09/10 04:59:23;;;;;;;9.60;4.20;;;;;;;12.36;100.00;97924.44;5129165;27;20431;-78
2023/09/10 05:01:49;;;;;;;10.30;3.78;;;;;;;12.48;100.00;97929.91;5130681;27;20027;-79
2023/09/10 05:04:14;;;;;;;7.85;3.80;;;;;;;12.55;100.00;97929.50;5121259;27;20474;-78
2023/09/10 05:06:40;;;;;;;10.77;3.30;;;;;;;12.63;100.00;97924.50;5125223;27;20037;-77
2023/09/10 05:09:07;;;;;;;5.75;3.28;;;;;;;12.74;100.00;97925.53;5122841;27;20035;-78
2023/09/10 05:11:33;;;;;;;6.68;3.47;;;;;;;12.80;100.00;97919.75;5122786;27;20413;-78
2023/09/10 05:13:59;;;;;;;13.15;3.42;;;;;;;12.96;100.00;97919.63;5135326;27;20031;-78
2023/09/10 05:16:24;;;;;;;9.65;3.22;;;;;;;12.98;100.00;97918.56;5145198;27;20111;-78
2023/09/10 05:18:50;;;;;;;8.35;3.20;;;;;;;13.08;100.00;97921.53;5140826;27;20403;-78
2023/09/10 05:21:15;;;;;;;5.38;3.40;;;;;;;13.01;100.00;97915.66;5118123;27;20324;-78
2023/09/10 05:23:42;;;;;;;8.85;3.67;;;;;;;13.18;100.00;97925.34;5128582;27;20105;-78
2023/09/10 05:26:07;;;;;;;7.78;3.17;;;;;;;13.13;100.00;97915.88;5148453;27;20033;-79
2023/09/10 05:28:33;;;;;;;6.25;2.92;;;;;;;13.40;100.00;97924.78;5125664;27;20098;-78
2023/09/10 05:31:07;;;;;;;7.88;3.50;;;;;;;13.70;100.00;97932.59;5141826;27;20035;-78
2023/09/10 05:33:33;;;;;;;11.30;3.40;;;;;;;14.00;100.00;97928.63;5125268;27;20417;-79
2023/09/10 05:35:59;;;;;;;15.82;6.22;;;;;;;15.25;100.00;97915.09;5128708;27;20477;-72
2023/09/10 05:38:25;;;;;;;4.65;3.10;;;;;;;16.62;100.00;97897.19;5146349;27;20023;-73
2023/09/10 05:40:51;;;;;;;7.85;4.30;;;;;;;18.12;100.00;97889.94;5131792;27;20062;-78
2023/09/10 05:43:17;;;;;;;11.13;3.08;;;;;;;18.93;100.00;97888.03;5118553;27;20015;-76
2023/09/10 05:45:45;;;;;;;6.65;3.05;;;;;;;20.00;94.46;97876.25;5124448;27;20327;-75
2023/09/10 05:48:10;;;;;;;8.80;3.53;;;;;;;20.17;91.04;97877.38;5114820;27;20050;-77
2023/09/10 05:50:38;;;;;;;8.45;3.75;;;;;;;19.77;90.29;97873.03;5114224;27;20415;-71
2023/09/10 05:53:04;;;;;;;6.70;3.35;;;;;;;20.52;87.74;97877.59;5145804;27;20088;-71
2023/09/10 05:55:29;;;;;;;13.43;3.58;;;;;;;21.45;79.69;97871.94;5149503;27;20023;-70
2023/09/10 05:57:55;;;;;;;8.18;3.83;;;;;;;21.19;79.59;97866.41;5148007;27;20414;-71
2023/09/10 06:00:21;;;;;;;8.85;3.40;;;;;;;21.47;79.33;97864.50;5131683;27;20559;-71
2023/09/10 06:02:48;;;;;;;6.70;3.38;;;;;;;22.55;71.13;97873.19;5141428;27;20495;-71
2023/09/10 06:05:15;;;;;;;7.13;2.80;;;;;;;21.80;71.06;97865.66;5124337;27;20122;-71
2023/09/10 06:07:41;;;;;;;5.97;3.00;;;;;;;21.26;75.85;97878.38;5108483;27;20023;-72
2023/09/10 06:10:09;;;;;;;8.15;3.05;;;;;;;21.72;74.75;97877.31;5121464;27;20031;-71
2023/09/10 06:12:38;;;;;;;10.45;4.32;;;;;;;22.11;70.54;97867.81;5147966;27;20045;-71
2023/09/10 06:15:05;;;;;;;13.48;3.75;;;;;;;22.53;70.23;97881.56;5129963;27;20038;-71
2023/09/10 06:17:30;;;;;;;9.68;4.05;;;;;;;22.71;66.50;97867.88;5130820;27;20035;-71
2023/09/10 06:19:57;;;;;;;11.65;2.95;;;;;;;22.46;66.92;97877.75;5149272;27;20150;-71
2023/09/10 06:22:23;;;;;;;7.25;3.03;;;;;;;20.51;77.43;97884.91;5129370;27;20083;-71
2023/09/10 06:24:48;;;;;;;6.05;3.45;;;;;;;20.85;81.20;97885.19;5129076;27;20034;-71
2023/09/10 06:27:14;;;;;;;6.28;3.20;;;;;;;21.90;73.47;97886.34;5128367;27;20745;-70
2023/09/10 06:29:40;;;;;;;6.68;3.85;;;;;;;21.66;71.30;97875.22;5147555;27;20452;-70
2023/09/10 06:32:05;;;;;;;12.38;8.00;;;;;;;21.84;69.18;97872.50;5147320;27;20035;-71
2023/09/10 06:34:31;;;;;;;11.95;4.68;;;;;;;22.41;65.89;97881.97;5147827;27;20391;-71
2023/09/10 06:36:56;;;;;;;6.93;3.10;;;;;;;22.64;64.06;97883.16;5147780;27;20439;-71
2023/09/10 06:39:22;;;;;;;9.55;3.90;;;;;;;22.77;63.67;97882.72;5130337;27;20504;-71
2023/09/10 06:41:48;;;;;;;40.83;5.20;;;;;;;23.31;61.36;97878.69;5147784;27;20034;-70
2023/09/10 06:44:13;;;;;;;8.07;2.78;;;;;;;25.10;55.75;97871.13;5147580;27;20033;-71
2023/09/10 06:46:39;;;;;;;7.45;3.15;;;;;;;24.65;53.78;97866.28;5147590;27;20157;-70
2023/09/10 06:49:04;;;;;;;10.70;3.08;;;;;;;25.98;51.23;97860.69;5147712;27;20018;-72
2023/09/10 06:51:30;;;;;;;6.40;2.80;;;;;;;26.55;48.49;97849.22;5147623;27;20026;-71
2023/09/10 06:53:55;;;;;;;6.28;2.88;;;;;;;26.69;46.79;97856.59;5149000;27;20026;-71
2023/09/10 06:56:21;;;;;;;8.48;3.08;;;;;;;26.68;47.47;97860.38;5132402;27;20102;-71
2023/09/10 06:58:47;;;;;;;4.97;3.05;;;;;;;27.74;45.22;97844.25;5128357;27;20094;-72
2023/09/10 07:01:18;;;;;;;5.00;2.92;;;;;;;28.55;42.61;97838.22;5149673;27;20029;-72
2023/09/10 07:03:45;;;;;;;28.33;10.48;;;;;;;28.14;43.24;97843.63;5133385;27;20027;-72
2023/09/10 07:06:11;;;;;;;17.98;3.03;;;;;;;25.51;46.99;97846.28;5149612;27;20114;-72
2023/09/10 07:08:37;;;;;;;12.18;4.47;;;;;;;25.54;47.40;97852.25;5151276;27;20019;-71
2023/09/10 07:11:03;;;;;;;9.73;4.35;;;;;;;26.22;47.21;97863.22;5151397;27;20026;-71
2023/09/10 07:13:30;;;;;;;8.98;3.28;;;;;;;26.48;45.89;97857.34;5152886;27;20451;-71
2023/09/10 07:15:55;;;;;;;9.43;2.67;;;;;;;26.29;45.63;97855.97;5134072;27;20078;-71
2023/09/10 07:18:21;;;;;;;9.40;3.40;;;;;;;26.15;44.63;97847.66;5151193;27;20131;-71
2023/09/10 07:20:47;;;;;;;7.53;3.10;;;;;;;26.49;45.02;97842.56;5151301;27;20672;-72
2023/09/10 07:23:12;;;;;;;8.85;3.15;;;;;;;25.95;44.40;97843.72;5133877;27;20034;-72
2023/09/10 07:25:41;;;;;;;5.57;2.95;;;;;;;25.74;44.55;97841.69;5152420;27;20038;-73
2023/09/10 07:28:07;;;;;;;5.00;2.58;;;;;;;25.54;45.01;97837.69;5151090;27;20025;-72
2023/09/10 07:30:32;;;;;;;6.85;2.78;;;;;;;24.96;46.40;97844.50;5151231;27;20105;-71
2023/09/10 07:32:58;;;;;;;8.25;3.80;;;;;;;25.71;45.47;97839.31;5152037;27;20086;-71
2023/09/10 07:35:23;;;;;;;5.70;3.40;;;;;;;26.64;43.93;97826.94;5152228;27;20449;-73
2023/09/10 07:37:49;;;;;;;4.55;2.75;;;;;;;27.30;42.07;97828.72;5150813;27;20034;-73
2023/09/10 07:40:15;;;;;;;6.97;3.28;;;;;;;28.12;40.83;97818.19;5152357;27;20110;-72
2023/09/10 07:42:44;;;;;;;12.63;4.18;;;;;;;28.67;40.50;97816.53;5150938;27;20467;-71
2023/09/10 07:45:14;;;;;;;10.13;5.38;;;;;;;28.55;40.42;97812.63;5150733;27;20026;-71
2023/09/10 07:47:40;;;;;;;7.57;4.68;;;;;;;28.58;39.82;97824.06;5133873;27;20019;-70
2023/09/10 07:50:06;;;;;;;10.30;3.97;;;;;;;28.50;39.53;97816.81;5133465;27;20022;-71
2023/09/10 07:52:32;;;;;;;15.73;5.55;;;;;;;29.46;38.76;97813.13;5133295;27;20496;-70
2023/09/10 07:54:57;;;;;;;13.75;5.80;;;;;;;29.55;38.39;97811.88;5151773;27;20068;-71
2023/09/10 07:57:24;;;;;;;294.20;19.13;;;;;;;31.28;35.75;97797.81;5150267;27;20547;-70
2023/09/10 07:59:50;;;;;;;9.52;5.18;;;;;;;31.74;34.99;97805.88;5133121;27;20033;-71
2023/09/10 08:02:16;;;;;;;12.55;3.78;;;;;;;31.03;34.13;97786.63;5133066;27;20548;-71
2023/09/10 08:04:43;;;;;;;7.07;3.33;;;;;;;29.79;35.80;97799.41;5151923;27;20477;-71
2023/09/10 08:07:10;;;;;;;14.50;3.10;;;;;;;29.69;37.55;97803.63;5151948;27;20027;-71
2023/09/10 08:09:36;;;;;;;19.92;3.20;;;;;;;29.48;36.53;97805.50;5151534;27;20489;-71
2023/09/10 08:12:02;;;;;;;6.30;2.85;;;;;;;29.23;36.89;97798.78;5149483;27;20362;-72
2023/09/10 08:14:28;;;;;;;6.82;2.85;;;;;;;29.65;37.22;97792.19;5150342;27;20031;-73
2023/09/10 08:16:53;;;;;;;10.20;3.15;;;;;;;29.62;37.16;97800.03;5149814;27;20069;-70
2023/09/10 08:19:19;;;;;;;3.40;2.50;;;;;;;30.22;36.26;97801.81;5151734;27;20026;-71
2023/09/10 08:21:45;;;;;;;5.18;2.25;;;;;;;30.42;35.79;97805.44;5151169;27;20477;-70
2023/09/10 08:24:11;;;;;;;4.53;2.40;;;;;;;31.28;35.43;97792.28;5149982;27;20095;-71
2023/09/10 08:26:36;;;;;;;6.05;2.53;;;;;;;31.49;34.95;97800.28;5150036;27;20030;-72
2023/09/10 08:29:02;;;;;;;10.57;2.75;;;;;;;32.51;33.55;97797.22;5151452;27;20026;-71
2023/09/10 08:31:27;;;;;;;9.25;2.88;;;;;;;33.55;31.30;97786.00;5127518;27;20043;-72
2023/09/10 08:33:53;;;;;;;5.82;2.70;;;;;;;33.50;30.73;97783.94;5146004;27;20030;-72
2023/09/10 08:36:37;;;;;;;6.18;2.80;;;;;;;32.76;31.08;97786.13;5149607;27;20467;-71
2023/09/10 08:39:03;;;;;;;5.10;2.55;;;;;;;32.36;31.61;97774.56;5149635;27;20027;-71
2023/09/10 08:41:31;;;;;;;8.75;2.78;;;;;;;32.41;32.00;97777.47;5150986;27;20025;-72
2023/09/10 08:43:58;;;;;;;7.30;2.35;;;;;;;32.42;32.08;97780.03;5149296;27;20051;-71
2023/09/10 08:46:30;;;;;;;7.00;2.30;;;;;;;32.42;31.65;97776.41;5149763;27;20022;-72
2023/09/10 08:48:57;;;;;;;6.55;2.60;;;;;;;33.59;30.70;97774.25;5149781;27;20136;-71
2023/09/10 08:51:23;;;;;;;5.03;2.80;;;;;;;32.73;31.48;97771.63;5150913;27;20455;-71
2023/09/10 08:53:49;;;;;;;7.70;4.35;;;;;;;33.93;31.03;97774.59;5132069;27;20034;-72
2023/09/10 08:56:14;;;;;;;7.22;3.70;;;;;;;33.37;31.37;97767.47;5149263;27;20481;-72
2023/09/10 08:58:42;;;;;;;5.38;3.17;;;;;;;34.38;30.66;97769.38;5150648;27;20417;-72
2023/09/10 09:01:11;;;;;;;14.88;3.85;;;;;;;33.31;31.47;97773.97;5149445;27;20053;-72
2023/09/10 09:03:37;;;;;;;5.03;3.15;;;;;;;33.86;30.09;97754.41;5149403;27;20062;-71
2023/09/10 09:06:04;;;;;;;10.25;3.58;;;;;;;32.84;31.20;97758.09;5131910;27;20453;-72
2023/09/10 09:08:41;;;;;;;7.00;3.38;;;;;;;33.52;30.79;97762.38;5131966;27;20054;-72
2023/09/10 09:11:08;;;;;;;5.75;3.83;;;;;;;33.06;31.60;97756.53;5145029;27;20035;-72
2023/09/10 09:13:45;;;;;;;7.25;2.90;;;;;;;34.37;30.19;97757.41;5145807;27;20030;-72
2023/09/10 09:16:11;;;;;;;7.03;3.28;;;;;;;34.37;29.75;97751.00;5148934;27;20038;-72
2023/09/10 09:18:37;;;;;;;7.63;3.67;;;;;;;35.36;29.19;97739.66;5149079;27;20026;-72
2023/09/10 09:21:10;;;;;;;5.93;3.13;;;;;;;35.29;29.84;97744.53;5149059;27;20042;-72
2023/09/10 09:23:41;;;;;;;11.55;4.47;;;;;;;36.28;28.89;97743.09;5130681;27;20027;-72
2023/09/10 09:26:07;;;;;;;7.65;3.08;;;;;;;35.98;29.46;97748.09;5131751;27;20030;-71
2023/09/10 09:28:33;;;;;;;9.65;3.90;;;;;;;36.21;29.14;97740.47;5148699;27;20027;-71
2023/09/10 09:30:59;;;;;;;8.82;3.17;;;;;;;37.10;27.83;97738.50;5131397;27;20030;-70
2023/09/10 09:33:25;;;;;;;13.70;3.30;;;;;;;37.61;27.28;97737.19;5142302;27;20075;-72
2023/09/10 09:35:50;;;;;;;14.68;3.17;;;;;;;39.11;25.94;97733.16;5146475;27;20373;-72
2023/09/10 09:38:16;;;;;;;7.75;3.70;;;;;;;38.35;26.59;97731.81;5148560;27;20101;-72
2023/09/10 09:40:42;;;;;;;6.68;3.42;;;;;;;37.25;28.48;97740.66;5148867;27;20062;-70
2023/09/10 09:43:09;;;;;;;3.55;3.00;;;;;;;38.05;26.93;97735.16;5147588;27;20022;-73
2023/09/10 09:45:39;;;;;;;5.20;3.35;;;;;;;36.20;28.21;97729.59;5127618;27;20023;-71
2023/09/10 09:48:05;;;;;;;6.38;2.72;;;;;;;35.85;29.26;97733.41;5147605;27;20023;-71
2023/09/10 09:50:31;;;;;;;6.43;3.15;;;;;;;35.97;29.93;97735.25;5148328;27;20042;-71
2023/09/10 09:52:57;;;;;;;12.15;3.88;;;;;;;36.39;29.03;97725.44;5131103;27;20031;-71
2023/09/10 09:55:23;;;;;;;4.07;3.13;;;;;;;37.07;28.12;97716.69;5139090;27;20026;-71
2023/09/10 09:57:49;;;;;;;4.60;2.88;;;;;;;34.98;29.66;97709.63;5144860;27;20426;-71
2023/09/10 10:00:16;;;;;;;9.82;3.63;;;;;;;36.64;28.72;97720.25;5148514;27;20054;-71
2023/09/10 10:02:42;;;;;;;5.18;3.28;;;;;;;35.99;28.62;97708.03;5130849;27;20117;-71
2023/09/10 10:05:08;;;;;;;9.00;3.38;;;;;;;37.15;28.03;97707.88;5148006;27;20086;-71
2023/09/10 10:07:36;;;;;;;8.05;3.53;;;;;;;37.04;27.84;97694.88;5147927;27;20034;-71
2023/09/10 10:10:05;;;;;;;11.00;3.60;;;;;;;36.43;28.50;97693.16;5148161;27;20030;-71
2023/09/10 10:12:31;;;;;;;7.03;3.45;;;;;;;36.97;27.67;97701.75;5148099;27;20027;-72
2023/09/10 10:14:57;;;;;;;13.55;4.05;;;;;;;38.52;26.44;97698.91;5147997;27;20023;-72
2023/09/10 10:17:23;;;;;;;8.70;3.90;;;;;;;37.49;26.95;97694.63;5148228;27;20027;-72
2023/09/10 10:19:50;;;;;;;7.75;3.85;;;;;;;36.76;27.90;97679.16;5147845;27;20030;-72
2023/09/10 10:22:16;;;;;;;8.98;4.15;;;;;;;35.69;29.18;97694.38;5149724;27;20019;-72
2023/09/10 10:24:41;;;;;;;12.55;3.53;;;;;;;36.54;28.23;97686.66;5148343;27;20127;-71
2023/09/10 10:27:08;;;;;;;6.07;3.75;;;;;;;35.59;28.45;97683.94;5130811;27;20023;-72
2023/09/10 10:29:34;;;;;;;8.43;3.53;;;;;;;34.01;29.85;97690.94;5147945;27;20073;-72
2023/09/10 10:32:27;;;;;;;7.55;4.60;;;;;;;32.63;31.70;97684.56;5130979;27;20023;-71
2023/09/10 10:34:59;;;;;;;13.55;3.58;;;;;;;32.71;31.55;97696.19;5131830;27;20413;-71
2023/09/10 10:37:31;;;;;;;22.98;3.92;;;;;;;34.03;30.80;97697.09;5152154;27;20119;-72
2023/09/10 10:40:08;;;;;;;3.70;3.10;;;;;;;33.71;30.82;97691.88;5152307;27;20065;-71
2023/09/10 10:42:56;;;;;;;7.18;3.17;;;;;;;32.52;31.95;97685.28;5152043;27;20030;-71
2023/09/10 10:45:24;;;;;;;6.30;3.45;;;;;;;32.42;32.29;97685.00;5153490;27;20068;-71
2023/09/10 10:47:50;;;;;;;7.40;3.50;;;;;;;32.32;32.16;97679.13;5152048;27;20330;-72
2023/09/10 10:50:21;;;;;;;4.85;2.92;;;;;;;31.77;33.06;97697.50;5134918;27;20034;-72
2023/09/10 10:53:09;;;;;;;5.00;3.30;;;;;;;31.53;33.22;97686.19;5135016;27;20034;-71
2023/09/10 10:55:35;;;;;;;4.63;3.28;;;;;;;32.39;32.76;97682.69;5151986;27;20159;-71
2023/09/10 10:58:00;;;;;;;9.80;3.58;;;;;;;33.44;31.36;97679.44;5151780;27;20122;-71
2023/09/10 11:00:35;;;;;;;7.40;3.63;;;;;;;35.47;29.20;97666.38;5152066;27;20134;-71
2023/09/10 11:03:13;;;;;;;13.85;3.45;;;;;;;36.45;28.39;97660.31;5152000;27;20037;-72
2023/09/10 11:08:42;;;;;;;8.32;3.20;;;;;;;38.18;26.56;97641.63;5153068;27;20034;-71
2023/09/10 11:11:28;;;;;;;6.07;3.08;;;;;;;39.13;25.62;97649.75;5134797;27;20031;-73
2023/09/10 11:14:01;;;;;;;4.22;3.10;;;;;;;40.60;24.12;97647.94;5130096;27;20043;-71
2023/09/10 11:16:30;;;;;;;6.72;3.15;;;;;;;41.24;23.98;97652.75;5132716;27;20054;-71
2023/09/10 11:18:56;;;;;;;8.35;3.30;;;;;;;38.33;25.94;97633.34;5134122;27;20111;-70
2023/09/10 11:21:21;;;;;;;9.07;3.58;;;;;;;40.01;24.76;97634.50;5152446;27;20031;-70
2023/09/10 11:23:53;;;;;;;7.35;4.15;;;;;;;40.18;23.92;97639.03;5152702;27;20034;-72
2023/09/10 11:26:21;;;;;;;4.82;3.22;;;;;;;38.23;26.05;97636.06;5152406;27;20102;-71
2023/09/10 11:28:53;;;;;;;6.47;3.58;;;;;;;38.99;25.78;97629.81;5152398;27;20018;-71
2023/09/10 11:31:45;;;;;;;6.03;3.60;;;;;;;39.21;25.02;97625.94;5151253;27;20126;-70
2023/09/10 11:34:28;;;;;;;8.98;3.65;;;;;;;36.81;27.40;97628.19;5151167;27;20581;-71